O54 weather

Lonnie Pool Field Weaverville Airport
Weaverville, California, United States

Public forecast

Using degrees Fahrenheit for public forecast. Weather courtesy of forecast.io.

Current aviation weather report (METAR) for Lonnie Pool Field Weaverville Airport

Retrieved 2019/10/15 00:35 UTC (0 seconds ago):

KO54 150035Z AUTO 22004KT 10SM CLR 24/M02 A2996 RMK AO1

Closest aviation forecast (TAF) to Lonnie Pool Field Weaverville Airport

Closest forecast is Redding Municipal Airport, 32.0 nm (59.2 km) ESE. Retrieved 2019-10-15 00:22 UTC (0 seconds ago):

TAF KRDD 142320Z 1500/1524 VRB04KT P6SM SKC